sensor_id;sensor_type;location;lat;lon;timestamp;temperature;humidity
8269;DHT22;4174;48.304;16.364;2023-12-14T00:01:12;6.40;99.90
8269;DHT22;4174;48.304;16.364;2023-12-14T00:07:15;6.50;99.90
8269;DHT22;4174;48.304;16.364;2023-12-14T00:13:18;6.60;99.90
8269;DHT22;4174;48.304;16.364;2023-12-14T00:19:23;6.30;99.90
8269;DHT22;4174;48.304;16.364;2023-12-14T00:25:25;6.00;99.90
8269;DHT22;4174;48.304;16.364;2023-12-14T00:31:29;6.10;99.90
8269;DHT22;4174;48.304;16.364;2023-12-14T00:37:32;6.10;99.90
8269;DHT22;4174;48.304;16.364;2023-12-14T00:43:39;5.70;99.90
8269;DHT22;4174;48.304;16.364;2023-12-14T00:49:43;5.70;99.90
8269;DHT22;4174;48.304;16.364;2023-12-14T00:55:47;5.90;99.90
8269;DHT22;4174;48.304;16.364;2023-12-14T01:01:51;5.50;99.90
8269;DHT22;4174;48.304;16.364;2023-12-14T01:07:54;5.50;99.90
8269;DHT22;4174;48.304;16.364;2023-12-14T01:13:58;5.80;99.90
8269;DHT22;4174;48.304;16.364;2023-12-14T01:20:02;5.90;99.90
8269;DHT22;4174;48.304;16.364;2023-12-14T01:26:04;5.90;99.90
8269;DHT22;4174;48.304;16.364;2023-12-14T01:32:08;5.90;99.90
8269;DHT22;4174;48.304;16.364;2023-12-14T01:38:12;6.00;99.90
8269;DHT22;4174;48.304;16.364;2023-12-14T01:44:16;6.10;99.90
8269;DHT22;4174;48.304;16.364;2023-12-14T01:50:19;6.20;99.90
8269;DHT22;4174;48.304;16.364;2023-12-14T01:56:23;6.10;99.90
8269;DHT22;4174;48.304;16.364;2023-12-14T02:02:27;6.20;99.90
8269;DHT22;4174;48.304;16.364;2023-12-14T02:08:30;5.90;99.90
8269;DHT22;4174;48.304;16.364;2023-12-14T02:14:35;5.60;99.90
8269;DHT22;4174;48.304;16.364;2023-12-14T02:20:39;5.50;99.90
8269;DHT22;4174;48.304;16.364;2023-12-14T02:26:43;5.60;99.90
8269;DHT22;4174;48.304;16.364;2023-12-14T02:32:47;5.70;99.90
8269;DHT22;4174;48.304;16.364;2023-12-14T02:38:51;6.00;99.90
8269;DHT22;4174;48.304;16.364;2023-12-14T02:44:55;6.10;99.90
8269;DHT22;4174;48.304;16.364;2023-12-14T02:50:58;6.20;99.90
8269;DHT22;4174;48.304;16.364;2023-12-14T02:57:00;6.30;99.90
8269;DHT22;4174;48.304;16.364;2023-12-14T03:03:04;6.40;99.90
8269;DHT22;4174;48.304;16.364;2023-12-14T03:09:08;6.70;99.90
8269;DHT22;4174;48.304;16.364;2023-12-14T03:15:12;6.60;99.90
8269;DHT22;4174;48.304;16.364;2023-12-14T03:21:16;6.60;99.90
8269;DHT22;4174;48.304;16.364;2023-12-14T03:27:20;6.60;99.90
8269;DHT22;4174;48.304;16.364;2023-12-14T03:33:24;6.80;99.90
8269;DHT22;4174;48.304;16.364;2023-12-14T03:39:28;6.80;99.90
8269;DHT22;4174;48.304;16.364;2023-12-14T03:45:31;6.80;99.90
8269;DHT22;4174;48.304;16.364;2023-12-14T03:51:35;7.00;99.90
8269;DHT22;4174;48.304;16.364;2023-12-14T03:57:39;7.00;99.90
8269;DHT22;4174;48.304;16.364;2023-12-14T04:03:43;7.00;99.90
8269;DHT22;4174;48.304;16.364;2023-12-14T04:09:46;6.90;99.90
8269;DHT22;4174;48.304;16.364;2023-12-14T04:15:49;6.70;99.90
8269;DHT22;4174;48.304;16.364;2023-12-14T04:21:53;6.90;99.90
8269;DHT22;4174;48.304;16.364;2023-12-14T04:27:56;7.00;99.90
8269;DHT22;4174;48.304;16.364;2023-12-14T04:34:00;7.00;99.90
8269;DHT22;4174;48.304;16.364;2023-12-14T04:40:06;7.00;99.90
8269;DHT22;4174;48.304;16.364;2023-12-14T04:46:11;6.80;99.90
8269;DHT22;4174;48.304;16.364;2023-12-14T04:52:14;6.80;99.90
8269;DHT22;4174;48.304;16.364;2023-12-14T04:58:19;6.70;99.90
8269;DHT22;4174;48.304;16.364;2023-12-14T05:04:23;6.80;99.90
8269;DHT22;4174;48.304;16.364;2023-12-14T05:10:26;7.00;99.90
8269;DHT22;4174;48.304;16.364;2023-12-14T05:16:30;7.10;99.90
8269;DHT22;4174;48.304;16.364;2023-12-14T05:22:34;7.10;99.90
8269;DHT22;4174;48.304;16.364;2023-12-14T05:28:37;7.20;99.90
8269;DHT22;4174;48.304;16.364;2023-12-14T05:34:41;7.30;99.90
8269;DHT22;4174;48.304;16.364;2023-12-14T05:40:45;7.40;99.90
8269;DHT22;4174;48.304;16.364;2023-12-14T05:46:49;7.40;99.90
8269;DHT22;4174;48.304;16.364;2023-12-14T05:52:53;7.50;99.90
8269;DHT22;4174;48.304;16.364;2023-12-14T05:58:56;7.40;99.90
8269;DHT22;4174;48.304;16.364;2023-12-14T06:05:00;7.30;99.90
8269;DHT22;4174;48.304;16.364;2023-12-14T06:11:03;7.30;99.90
8269;DHT22;4174;48.304;16.364;2023-12-14T06:17:07;7.20;99.90
8269;DHT22;4174;48.304;16.364;2023-12-14T06:23:11;7.30;99.90
8269;DHT22;4174;48.304;16.364;2023-12-14T06:29:15;7.70;99.90
8269;DHT22;4174;48.304;16.364;2023-12-14T06:35:19;7.60;99.90
8269;DHT22;4174;48.304;16.364;2023-12-14T06:41:23;7.70;99.90
8269;DHT22;4174;48.304;16.364;2023-12-14T06:47:26;7.70;99.90
8269;DHT22;4174;48.304;16.364;2023-12-14T06:53:29;7.70;99.90
8269;DHT22;4174;48.304;16.364;2023-12-14T06:59:33;7.60;99.90
8269;DHT22;4174;48.304;16.364;2023-12-14T07:05:37;7.50;99.90
8269;DHT22;4174;48.304;16.364;2023-12-14T07:11:40;7.30;99.90
8269;DHT22;4174;48.304;16.364;2023-12-14T07:17:43;7.10;99.90
8269;DHT22;4174;48.304;16.364;2023-12-14T07:23:47;7.10;99.90
8269;DHT22;4174;48.304;16.364;2023-12-14T07:29:50;7.00;99.90
8269;DHT22;4174;48.304;16.364;2023-12-14T07:35:54;7.00;99.90
8269;DHT22;4174;48.304;16.364;2023-12-14T07:41:57;7.10;99.90
8269;DHT22;4174;48.304;16.364;2023-12-14T07:48:00;7.30;99.90
8269;DHT22;4174;48.304;16.364;2023-12-14T07:54:03;7.30;99.90
8269;DHT22;4174;48.304;16.364;2023-12-14T08:00:08;7.20;99.90
8269;DHT22;4174;48.304;16.364;2023-12-14T08:06:13;7.10;99.90
8269;DHT22;4174;48.304;16.364;2023-12-14T08:12:17;7.00;99.90
8269;DHT22;4174;48.304;16.364;2023-12-14T08:18:21;7.10;99.90
8269;DHT22;4174;48.304;16.364;2023-12-14T08:24:25;7.10;99.90
8269;DHT22;4174;48.304;16.364;2023-12-14T08:30:28;7.10;99.90
8269;DHT22;4174;48.304;16.364;2023-12-14T08:36:32;7.20;99.90
8269;DHT22;4174;48.304;16.364;2023-12-14T08:42:36;7.20;99.90
8269;DHT22;4174;48.304;16.364;2023-12-14T08:48:39;7.30;99.90
8269;DHT22;4174;48.304;16.364;2023-12-14T08:54:43;7.40;99.90
8269;DHT22;4174;48.304;16.364;2023-12-14T09:00:47;7.30;99.90
8269;DHT22;4174;48.304;16.364;2023-12-14T09:06:50;7.60;99.90
8269;DHT22;4174;48.304;16.364;2023-12-14T09:12:53;7.80;99.90
8269;DHT22;4174;48.304;16.364;2023-12-14T09:18:57;8.00;99.90
8269;DHT22;4174;48.304;16.364;2023-12-14T09:25:01;8.20;99.90
8269;DHT22;4174;48.304;16.364;2023-12-14T09:31:05;8.50;99.90
8269;DHT22;4174;48.304;16.364;2023-12-14T09:37:09;8.50;99.90
8269;DHT22;4174;48.304;16.364;2023-12-14T09:43:12;8.60;99.90
8269;DHT22;4174;48.304;16.364;2023-12-14T09:49:15;8.40;99.90
8269;DHT22;4174;48.304;16.364;2023-12-14T09:55:19;8.40;99.90
8269;DHT22;4174;48.304;16.364;2023-12-14T10:01:25;8.30;99.90
8269;DHT22;4174;48.304;16.364;2023-12-14T10:07:27;8.50;99.90
8269;DHT22;4174;48.304;16.364;2023-12-14T10:13:36;8.40;99.90
8269;DHT22;4174;48.304;16.364;2023-12-14T10:19:39;8.50;99.90
8269;DHT22;4174;48.304;16.364;2023-12-14T10:25:42;8.50;99.90
8269;DHT22;4174;48.304;16.364;2023-12-14T10:31:43;8.70;99.90
8269;DHT22;4174;48.304;16.364;2023-12-14T10:37:48;8.70;99.90
8269;DHT22;4174;48.304;16.364;2023-12-14T10:43:50;8.80;99.90
8269;DHT22;4174;48.304;16.364;2023-12-14T10:49:53;8.90;99.90
8269;DHT22;4174;48.304;16.364;2023-12-14T10:55:56;11.00;99.90
8269;DHT22;4174;48.304;16.364;2023-12-14T11:01:59;11.00;99.90
8269;DHT22;4174;48.304;16.364;2023-12-14T11:08:04;11.70;99.90
8269;DHT22;4174;48.304;16.364;2023-12-14T11:14:06;12.70;99.90
8269;DHT22;4174;48.304;16.364;2023-12-14T11:26:27;11.80;99.90
8269;DHT22;4174;48.304;16.364;2023-12-14T11:32:30;12.00;99.90
8269;DHT22;4174;48.304;16.364;2023-12-14T11:38:34;12.30;99.90
8269;DHT22;4174;48.304;16.364;2023-12-14T11:44:37;12.80;99.90
8269;DHT22;4174;48.304;16.364;2023-12-14T11:50:40;12.70;99.90
8269;DHT22;4174;48.304;16.364;2023-12-14T11:56:47;12.60;99.90
8269;DHT22;4174;48.304;16.364;2023-12-14T12:02:50;12.30;99.90
8269;DHT22;4174;48.304;16.364;2023-12-14T12:08:53;12.20;99.90
8269;DHT22;4174;48.304;16.364;2023-12-14T12:14:56;12.30;99.90
8269;DHT22;4174;48.304;16.364;2023-12-14T12:21:00;12.20;99.90
8269;DHT22;4174;48.304;16.364;2023-12-14T12:27:03;12.20;99.90
8269;DHT22;4174;48.304;16.364;2023-12-14T12:33:07;12.40;99.90
8269;DHT22;4174;48.304;16.364;2023-12-14T12:39:11;12.50;99.90
8269;DHT22;4174;48.304;16.364;2023-12-14T12:45:15;12.50;99.90
8269;DHT22;4174;48.304;16.364;2023-12-14T12:51:18;12.30;99.90
8269;DHT22;4174;48.304;16.364;2023-12-14T12:57:21;11.90;99.90
8269;DHT22;4174;48.304;16.364;2023-12-14T13:03:25;11.70;99.90
8269;DHT22;4174;48.304;16.364;2023-12-14T13:09:29;11.60;99.90
8269;DHT22;4174;48.304;16.364;2023-12-14T13:15:33;11.30;99.90
8269;DHT22;4174;48.304;16.364;2023-12-14T13:21:37;11.30;99.90
8269;DHT22;4174;48.304;16.364;2023-12-14T13:27:40;11.10;99.90
8269;DHT22;4174;48.304;16.364;2023-12-14T13:33:44;10.80;99.90
8269;DHT22;4174;48.304;16.364;2023-12-14T13:39:47;10.00;99.90
8269;DHT22;4174;48.304;16.364;2023-12-14T13:45:50;10.00;99.90
8269;DHT22;4174;48.304;16.364;2023-12-14T13:51:53;9.80;99.90
8269;DHT22;4174;48.304;16.364;2023-12-14T13:57:57;9.40;99.90
8269;DHT22;4174;48.304;16.364;2023-12-14T14:04:01;9.40;99.90
8269;DHT22;4174;48.304;16.364;2023-12-14T14:10:05;9.40;99.90
8269;DHT22;4174;48.304;16.364;2023-12-14T14:16:09;9.40;99.90
8269;DHT22;4174;48.304;16.364;2023-12-14T14:22:13;9.00;99.90
8269;DHT22;4174;48.304;16.364;2023-12-14T14:28:17;8.90;99.90
8269;DHT22;4174;48.304;16.364;2023-12-14T14:34:20;8.80;99.90
8269;DHT22;4174;48.304;16.364;2023-12-14T14:40:24;8.60;99.90
8269;DHT22;4174;48.304;16.364;2023-12-14T14:46:28;8.60;99.90
8269;DHT22;4174;48.304;16.364;2023-12-14T14:52:33;8.50;99.90
8269;DHT22;4174;48.304;16.364;2023-12-14T14:58:36;8.50;99.90
8269;DHT22;4174;48.304;16.364;2023-12-14T15:04:39;8.40;99.90
8269;DHT22;4174;48.304;16.364;2023-12-14T15:10:42;8.40;99.90
8269;DHT22;4174;48.304;16.364;2023-12-14T15:16:47;8.50;99.90
8269;DHT22;4174;48.304;16.364;2023-12-14T15:22:50;8.60;99.90
8269;DHT22;4174;48.304;16.364;2023-12-14T15:28:54;8.60;99.90
8269;DHT22;4174;48.304;16.364;2023-12-14T15:34:58;8.70;99.90
8269;DHT22;4174;48.304;16.364;2023-12-14T15:41:01;8.80;99.90
8269;DHT22;4174;48.304;16.364;2023-12-14T15:47:05;8.70;99.90
8269;DHT22;4174;48.304;16.364;2023-12-14T15:53:09;8.60;99.90
8269;DHT22;4174;48.304;16.364;2023-12-14T15:59:13;8.50;99.90
8269;DHT22;4174;48.304;16.364;2023-12-14T16:05:17;8.50;99.90
8269;DHT22;4174;48.304;16.364;2023-12-14T16:11:21;8.40;99.90
8269;DHT22;4174;48.304;16.364;2023-12-14T16:17:25;8.40;99.90
8269;DHT22;4174;48.304;16.364;2023-12-14T16:23:28;8.50;99.90
8269;DHT22;4174;48.304;16.364;2023-12-14T16:29:31;8.80;99.90
8269;DHT22;4174;48.304;16.364;2023-12-14T16:35:36;8.70;99.90
8269;DHT22;4174;48.304;16.364;2023-12-14T16:41:39;8.70;99.90
8269;DHT22;4174;48.304;16.364;2023-12-14T16:47:43;8.70;99.90
8269;DHT22;4174;48.304;16.364;2023-12-14T16:53:46;8.60;99.90
8269;DHT22;4174;48.304;16.364;2023-12-14T16:59:50;8.50;99.90
8269;DHT22;4174;48.304;16.364;2023-12-14T17:05:54;8.50;99.90
8269;DHT22;4174;48.304;16.364;2023-12-14T17:11:57;8.50;99.90
8269;DHT22;4174;48.304;16.364;2023-12-14T17:18:01;8.50;99.90
8269;DHT22;4174;48.304;16.364;2023-12-14T17:24:05;8.40;99.90
8269;DHT22;4174;48.304;16.364;2023-12-14T17:30:09;8.20;99.90
8269;DHT22;4174;48.304;16.364;2023-12-14T17:36:13;8.20;99.90
8269;DHT22;4174;48.304;16.364;2023-12-14T17:42:17;8.20;99.90
8269;DHT22;4174;48.304;16.364;2023-12-14T17:48:21;8.20;99.90
8269;DHT22;4174;48.304;16.364;2023-12-14T17:54:24;8.10;99.90
8269;DHT22;4174;48.304;16.364;2023-12-14T18:00:28;8.10;99.90
8269;DHT22;4174;48.304;16.364;2023-12-14T18:06:31;8.10;99.90
8269;DHT22;4174;48.304;16.364;2023-12-14T18:12:35;8.20;99.90
8269;DHT22;4174;48.304;16.364;2023-12-14T18:18:38;8.10;99.90
8269;DHT22;4174;48.304;16.364;2023-12-14T18:24:42;8.10;99.90
8269;DHT22;4174;48.304;16.364;2023-12-14T18:30:46;8.10;99.90
8269;DHT22;4174;48.304;16.364;2023-12-14T18:36:50;8.00;99.90
8269;DHT22;4174;48.304;16.364;2023-12-14T18:42:54;8.00;99.90
8269;DHT22;4174;48.304;16.364;2023-12-14T18:48:57;8.00;99.90
8269;DHT22;4174;48.304;16.364;2023-12-14T18:55:01;8.20;99.90
8269;DHT22;4174;48.304;16.364;2023-12-14T19:01:05;8.10;99.90
8269;DHT22;4174;48.304;16.364;2023-12-14T19:07:09;8.00;99.90
8269;DHT22;4174;48.304;16.364;2023-12-14T19:13:12;7.80;99.90
8269;DHT22;4174;48.304;16.364;2023-12-14T19:19:16;7.80;99.90
8269;DHT22;4174;48.304;16.364;2023-12-14T19:25:19;7.90;99.90
8269;DHT22;4174;48.304;16.364;2023-12-14T19:31:23;8.00;99.90
8269;DHT22;4174;48.304;16.364;2023-12-14T19:37:25;8.00;99.90
8269;DHT22;4174;48.304;16.364;2023-12-14T19:43:30;7.90;99.90
8269;DHT22;4174;48.304;16.364;2023-12-14T19:49:34;7.90;99.90
8269;DHT22;4174;48.304;16.364;2023-12-14T19:55:38;7.80;99.90
8269;DHT22;4174;48.304;16.364;2023-12-14T20:01:41;7.80;99.90
8269;DHT22;4174;48.304;16.364;2023-12-14T20:07:45;7.90;99.90
8269;DHT22;4174;48.304;16.364;2023-12-14T20:13:49;7.90;99.90
8269;DHT22;4174;48.304;16.364;2023-12-14T20:19:53;7.80;99.90
8269;DHT22;4174;48.304;16.364;2023-12-14T20:25:56;8.00;99.90
8269;DHT22;4174;48.304;16.364;2023-12-14T20:31:59;8.00;99.90
8269;DHT22;4174;48.304;16.364;2023-12-14T20:38:03;8.10;99.90
8269;DHT22;4174;48.304;16.364;2023-12-14T20:44:07;8.10;99.90
8269;DHT22;4174;48.304;16.364;2023-12-14T20:50:12;8.20;99.90
8269;DHT22;4174;48.304;16.364;2023-12-14T20:56:15;8.20;99.90
8269;DHT22;4174;48.304;16.364;2023-12-14T21:02:20;8.30;99.90
8269;DHT22;4174;48.304;16.364;2023-12-14T21:08:23;8.20;99.90
8269;DHT22;4174;48.304;16.364;2023-12-14T21:14:27;8.20;99.90
8269;DHT22;4174;48.304;16.364;2023-12-14T21:20:31;8.20;99.90
8269;DHT22;4174;48.304;16.364;2023-12-14T21:26:34;8.30;99.90
8269;DHT22;4174;48.304;16.364;2023-12-14T21:32:41;8.50;99.90
8269;DHT22;4174;48.304;16.364;2023-12-14T21:38:43;8.60;99.90
8269;DHT22;4174;48.304;16.364;2023-12-14T21:44:47;8.40;99.90
8269;DHT22;4174;48.304;16.364;2023-12-14T21:50:50;8.30;99.90
8269;DHT22;4174;48.304;16.364;2023-12-14T21:56:54;8.40;99.90
8269;DHT22;4174;48.304;16.364;2023-12-14T22:02:58;8.20;99.90
8269;DHT22;4174;48.304;16.364;2023-12-14T22:09:02;8.00;99.90
8269;DHT22;4174;48.304;16.364;2023-12-14T22:15:07;7.90;99.90
8269;DHT22;4174;48.304;16.364;2023-12-14T22:21:11;8.10;99.90
8269;DHT22;4174;48.304;16.364;2023-12-14T22:27:15;8.10;99.90
8269;DHT22;4174;48.304;16.364;2023-12-14T22:33:18;8.00;99.90
8269;DHT22;4174;48.304;16.364;2023-12-14T22:39:22;8.20;99.90
8269;DHT22;4174;48.304;16.364;2023-12-14T22:45:26;8.00;99.90
8269;DHT22;4174;48.304;16.364;2023-12-14T22:51:30;8.00;99.90
8269;DHT22;4174;48.304;16.364;2023-12-14T22:57:34;8.20;99.90
8269;DHT22;4174;48.304;16.364;2023-12-14T23:03:37;8.40;99.90
8269;DHT22;4174;48.304;16.364;2023-12-14T23:09:42;8.20;99.90
8269;DHT22;4174;48.304;16.364;2023-12-14T23:15:45;8.20;99.90
8269;DHT22;4174;48.304;16.364;2023-12-14T23:21:50;7.70;99.90
8269;DHT22;4174;48.304;16.364;2023-12-14T23:27:54;7.70;99.90
8269;DHT22;4174;48.304;16.364;2023-12-14T23:33:56;7.60;99.90
8269;DHT22;4174;48.304;16.364;2023-12-14T23:40:01;7.40;99.90
8269;DHT22;4174;48.304;16.364;2023-12-14T23:46:04;7.40;99.90
8269;DHT22;4174;48.304;16.364;2023-12-14T23:52:08;7.40;99.90
8269;DHT22;4174;48.304;16.364;2023-12-14T23:58:11;7.20;99.90
